Time;durP1;ratioP1;P1;durP2;ratioP2;P2;SDS_P1;SDS_P2;PMS_P1;PMS_P2;Temp;Humidity;BMP_temperature;BMP_pressure;BME280_temperature;BME280_humidity;BME280_pressure;Samples;Min_cycle;Max_cycle;Signal;HPM_P1;HPM_P2
2022/03/26 00:01:29;;;;;;;32.92;9.75;;;;;;;;;;4999741;28;20030;-95
2022/03/26 00:04:06;;;;;;;30.00;10.98;;;;;;;;;;4983155;28;20037;-95
2022/03/26 00:06:45;;;;;;;33.80;11.70;;;;;;;;;;5142672;23;20058;-92
2022/03/26 00:09:14;;;;;;;29.27;9.95;;;;;;;;;;4952849;29;20049;-94
2022/03/26 00:11:46;;;;;;;36.22;11.07;;;;;;;;;;4945425;29;20027;-95
2022/03/26 00:14:36;;;;;;;24.52;8.23;;;;;;;;;;4944145;29;20027;-93
2022/03/26 00:17:05;;;;;;;23.30;9.00;;;;;;;;;;4939577;29;20090;-94
2022/03/26 00:19:49;;;;;;;24.40;7.57;;;;;;;;;;4944488;29;20030;-96
2022/03/26 00:22:15;;;;;;;19.20;8.30;;;;;;;;;;4943106;29;20400;-95
2022/03/26 00:24:45;;;;;;;20.35;8.07;;;;;;;;;;4982101;23;20046;-93
2022/03/26 00:27:11;;;;;;;19.70;7.15;;;;;;;;;;4962085;28;20134;-94
2022/03/26 00:29:40;;;;;;;20.15;7.85;;;;;;;;;;4962754;28;20035;-94
2022/03/26 00:32:30;;;;;;;33.00;7.53;;;;;;;;;;4963764;28;20027;-94
2022/03/26 00:34:57;;;;;;;20.63;8.00;;;;;;;;;;4969653;28;20038;-90
2022/03/26 00:37:24;;;;;;;20.10;7.88;;;;;;;;;;4981761;28;20075;-88
2022/03/26 00:39:56;;;;;;;21.95;7.82;;;;;;;;;;4956464;28;20050;-93
2022/03/26 00:42:26;;;;;;;23.77;7.78;;;;;;;;;;4985830;28;20078;-93
2022/03/26 00:44:52;;;;;;;19.63;8.38;;;;;;;;;;4962957;28;20027;-93
2022/03/26 00:47:22;;;;;;;19.95;7.68;;;;;;;;;;4962665;28;20167;-90
2022/03/26 00:49:48;;;;;;;24.23;8.00;;;;;;;;;;4961961;28;20034;-93
2022/03/26 00:52:14;;;;;;;21.27;7.45;;;;;;;;;;4962346;28;20059;-92
2022/03/26 00:54:41;;;;;;;21.88;9.25;;;;;;;;;;4963458;28;20029;-92
2022/03/26 00:57:11;;;;;;;25.73;8.85;;;;;;;;;;4968080;28;20039;-92
2022/03/26 00:59:37;;;;;;;21.02;8.35;;;;;;;;;;4984822;28;20023;-91
2022/03/26 01:02:04;;;;;;;25.95;8.60;;;;;;;;;;4960398;28;20035;-92
2022/03/26 01:04:33;;;;;;;26.13;9.40;;;;;;;;;;4961704;28;20030;-94
2022/03/26 01:06:59;;;;;;;24.35;8.02;;;;;;;;;;4946630;28;20058;-93
2022/03/26 01:09:25;;;;;;;28.98;9.40;;;;;;;;;;4962803;28;20027;-96
2022/03/26 01:11:52;;;;;;;25.00;8.43;;;;;;;;;;4961066;28;20042;-94
2022/03/26 01:14:19;;;;;;;29.23;8.77;;;;;;;;;;4977675;28;20035;-93
2022/03/26 01:16:45;;;;;;;28.20;9.77;;;;;;;;;;4972849;28;20121;-93
2022/03/26 01:19:16;;;;;;;26.15;10.43;;;;;;;;;;4978030;28;20026;-94
2022/03/26 01:21:42;;;;;;;28.02;9.73;;;;;;;;;;4961651;28;20027;-94
2022/03/26 01:24:09;;;;;;;41.70;11.70;;;;;;;;;;4976003;28;20038;-94
2022/03/26 01:26:36;;;;;;;27.55;10.73;;;;;;;;;;4954487;28;20062;-90
2022/03/26 01:29:07;;;;;;;31.77;10.68;;;;;;;;;;4954296;29;20032;-93
2022/03/26 01:31:37;;;;;;;31.75;11.20;;;;;;;;;;4954720;29;20046;-92
2022/03/26 01:34:03;;;;;;;39.28;11.85;;;;;;;;;;4962622;29;20007;-88
2022/03/26 01:36:33;;;;;;;31.85;11.43;;;;;;;;;;4954109;29;20039;-93
2022/03/26 01:38:59;;;;;;;39.58;12.07;;;;;;;;;;4943128;29;20032;-93
2022/03/26 01:41:25;;;;;;;33.15;11.75;;;;;;;;;;4941728;29;20042;-96
2022/03/26 01:43:52;;;;;;;28.50;10.88;;;;;;;;;;4941443;29;20027;-94
2022/03/26 01:46:21;;;;;;;32.63;11.02;;;;;;;;;;4925583;29;20036;-95
2022/03/26 01:48:51;;;;;;;23.98;8.95;;;;;;;;;;4958928;23;20097;-91
2022/03/26 01:51:20;;;;;;;25.58;10.15;;;;;;;;;;4960607;28;20033;-93
2022/03/26 01:53:58;;;;;;;21.42;9.05;;;;;;;;;;4961267;28;20118;-94
2022/03/26 01:56:25;;;;;;;29.35;9.68;;;;;;;;;;4960934;28;20101;-95
2022/03/26 01:58:52;;;;;;;28.52;9.68;;;;;;;;;;4960419;28;20050;-90
2022/03/26 02:01:18;;;;;;;33.13;10.23;;;;;;;;;;4960386;28;20057;-94
2022/03/26 02:03:53;;;;;;;26.27;9.52;;;;;;;;;;4961083;28;20025;-94
2022/03/26 02:06:22;;;;;;;25.08;9.82;;;;;;;;;;4968067;28;20090;-94
2022/03/26 02:15:01;;;;;;;26.30;8.10;;;;;;;;;;5004245;23;20118;-93
2022/03/26 02:23:35;;;;;;;22.23;7.87;;;;;;;;;;4996052;23;20062;-95
2022/03/26 02:26:04;;;;;;;27.45;9.45;;;;;;;;;;4960605;28;20278;-94
2022/03/26 02:28:31;;;;;;;25.50;9.13;;;;;;;;;;4961012;28;20026;-93
2022/03/26 02:30:57;;;;;;;26.05;8.85;;;;;;;;;;4961729;28;20035;-94
2022/03/26 02:33:24;;;;;;;29.55;9.07;;;;;;;;;;4960879;28;20041;-94
2022/03/26 02:35:54;;;;;;;30.25;8.80;;;;;;;;;;4993017;28;20096;-93
2022/03/26 02:38:23;;;;;;;22.13;8.30;;;;;;;;;;4976233;28;20107;-95
2022/03/26 02:40:49;;;;;;;24.00;8.75;;;;;;;;;;4959666;28;20073;-95
2022/03/26 02:43:15;;;;;;;27.20;8.80;;;;;;;;;;4963380;28;20027;-92
2022/03/26 02:45:48;;;;;;;26.98;9.45;;;;;;;;;;4971280;28;20094;-93
2022/03/26 02:48:14;;;;;;;27.25;9.00;;;;;;;;;;4961700;28;20033;-94
2022/03/26 02:50:53;;;;;;;26.85;9.63;;;;;;;;;;4959383;28;20031;-94
2022/03/26 02:53:19;;;;;;;28.25;8.73;;;;;;;;;;4960304;28;20027;-95
2022/03/26 02:55:45;;;;;;;17.20;7.63;;;;;;;;;;4959351;28;20058;-94
2022/03/26 02:58:12;;;;;;;22.75;8.68;;;;;;;;;;4959607;28;20480;-95
2022/03/26 03:00:38;;;;;;;18.70;7.55;;;;;;;;;;4959888;28;20058;-96
2022/03/26 03:03:06;;;;;;;18.80;7.53;;;;;;;;;;4959284;28;20026;-96
2022/03/26 03:05:32;;;;;;;20.30;8.48;;;;;;;;;;4959082;28;20023;-93
2022/03/26 03:07:59;;;;;;;24.20;8.75;;;;;;;;;;4959146;28;20050;-92
2022/03/26 03:10:26;;;;;;;27.25;8.43;;;;;;;;;;4958757;28;20023;-96
2022/03/26 03:12:53;;;;;;;28.10;8.55;;;;;;;;;;4958906;28;20026;-93
2022/03/26 03:15:22;;;;;;;19.30;8.05;;;;;;;;;;4959146;28;20063;-93
2022/03/26 03:20:52;;;;;;;31.70;10.03;;;;;;;;;;5044237;23;20531;-95
2022/03/26 03:23:18;;;;;;;27.00;9.68;;;;;;;;;;4940180;29;20023;-94
2022/03/26 03:25:48;;;;;;;27.38;8.50;;;;;;;;;;4939957;29;20031;-94
2022/03/26 03:28:14;;;;;;;25.92;8.30;;;;;;;;;;4940065;29;20484;-94
2022/03/26 03:30:46;;;;;;;28.00;9.43;;;;;;;;;;4940254;29;20023;-95
2022/03/26 03:33:19;;;;;;;29.95;11.05;;;;;;;;;;4941645;29;20122;-94
2022/03/26 03:35:45;;;;;;;29.83;8.95;;;;;;;;;;4947808;29;20027;-95
2022/03/26 03:38:11;;;;;;;35.22;10.15;;;;;;;;;;4941587;29;20110;-95
2022/03/26 03:40:37;;;;;;;31.45;10.27;;;;;;;;;;4939544;29;20028;-93
2022/03/26 03:43:03;;;;;;;27.98;9.00;;;;;;;;;;4940024;29;20027;-94
2022/03/26 03:45:29;;;;;;;26.65;8.82;;;;;;;;;;4939273;29;20035;-95
2022/03/26 03:47:55;;;;;;;27.23;8.35;;;;;;;;;;4939485;29;20059;-94
2022/03/26 03:50:22;;;;;;;24.80;8.52;;;;;;;;;;4939769;29;20031;-95
2022/03/26 03:52:48;;;;;;;22.98;8.93;;;;;;;;;;4940144;29;20089;-93
2022/03/26 03:55:14;;;;;;;22.23;8.15;;;;;;;;;;4939935;29;20090;-95
2022/03/26 03:57:46;;;;;;;29.58;9.35;;;;;;;;;;4939929;29;20031;-94
2022/03/26 04:00:14;;;;;;;19.60;8.35;;;;;;;;;;4939506;29;20027;-95
2022/03/26 04:02:43;;;;;;;36.00;10.23;;;;;;;;;;4944129;29;20170;-94
2022/03/26 04:05:13;;;;;;;20.17;7.43;;;;;;;;;;4944781;29;20384;-94
2022/03/26 04:07:46;;;;;;;25.73;8.43;;;;;;;;;;4936648;29;20039;-93
2022/03/26 04:10:13;;;;;;;31.65;10.60;;;;;;;;;;4958706;29;20035;-93
2022/03/26 04:12:44;;;;;;;36.30;10.32;;;;;;;;;;4964994;28;20046;-94
2022/03/26 04:17:54;;;;;;;23.52;9.23;;;;;;;;;;4988728;28;20043;-95
2022/03/26 04:20:24;;;;;;;24.73;8.73;;;;;;;;;;4971853;28;20031;-96
2022/03/26 04:22:50;;;;;;;28.52;9.80;;;;;;;;;;4965912;28;20026;-95
2022/03/26 04:25:17;;;;;;;33.70;10.52;;;;;;;;;;4964264;28;20078;-95
2022/03/26 04:27:44;;;;;;;29.17;9.75;;;;;;;;;;4965011;28;20031;-95
2022/03/26 04:30:14;;;;;;;27.80;9.63;;;;;;;;;;4964988;28;20031;-93
2022/03/26 04:32:40;;;;;;;29.58;9.40;;;;;;;;;;4981744;28;20042;-92
2022/03/26 04:35:07;;;;;;;26.10;8.57;;;;;;;;;;4974806;28;20030;-90
2022/03/26 04:37:34;;;;;;;24.70;7.97;;;;;;;;;;4964524;28;20030;-95
2022/03/26 04:40:04;;;;;;;25.30;8.80;;;;;;;;;;4963609;28;20045;-95
2022/03/26 04:42:42;;;;;;;20.73;7.65;;;;;;;;;;4980547;28;20026;-95
2022/03/26 04:45:09;;;;;;;20.70;7.43;;;;;;;;;;4969293;28;20095;-87
2022/03/26 04:47:36;;;;;;;20.35;8.48;;;;;;;;;;4973871;28;20039;-93
2022/03/26 04:50:02;;;;;;;37.40;9.15;;;;;;;;;;4964160;28;20033;-92
2022/03/26 04:52:28;;;;;;;24.83;7.13;;;;;;;;;;4962370;28;20054;-96
2022/03/26 04:54:54;;;;;;;28.98;8.07;;;;;;;;;;4963849;28;20031;-94
2022/03/26 04:57:20;;;;;;;23.67;7.88;;;;;;;;;;4961950;28;20133;-94
2022/03/26 04:59:47;;;;;;;19.42;7.63;;;;;;;;;;4960872;28;20038;-93
2022/03/26 05:02:16;;;;;;;37.95;8.95;;;;;;;;;;4972125;28;20497;-93
2022/03/26 05:04:42;;;;;;;21.38;7.75;;;;;;;;;;4975643;28;20033;-93
2022/03/26 05:21:41;;;;;;;25.40;9.27;;;;;;;;;;4992284;28;20049;-93
2022/03/26 05:24:09;;;;;;;23.55;10.23;;;;;;;;;;4966414;28;20031;-96
2022/03/26 05:26:47;;;;;;;29.52;10.30;;;;;;;;;;4970924;28;20479;-91
2022/03/26 05:31:49;;;;;;;36.50;10.50;;;;;;;;;;2626672;23;20017;-93
2022/03/26 05:34:15;;;;;;;35.17;9.88;;;;;;;;;;4940436;28;20039;-94
2022/03/26 05:36:41;;;;;;;31.05;10.75;;;;;;;;;;4941957;29;20480;-93
2022/03/26 05:39:08;;;;;;;25.85;9.38;;;;;;;;;;4942328;29;20091;-93
2022/03/26 05:41:40;;;;;;;25.23;10.15;;;;;;;;;;4942710;29;20123;-94
2022/03/26 05:44:12;;;;;;;24.45;10.10;;;;;;;;;;4942073;29;20389;-95
2022/03/26 05:46:38;;;;;;;23.33;9.00;;;;;;;;;;4942854;29;20031;-92
2022/03/26 05:49:14;;;;;;;26.63;10.10;;;;;;;;;;4944861;29;20027;-95
2022/03/26 05:51:43;;;;;;;23.98;8.65;;;;;;;;;;4958239;28;20050;-93
2022/03/26 05:54:12;;;;;;;23.42;8.43;;;;;;;;;;4960886;29;20034;-93
2022/03/26 05:56:39;;;;;;;16.60;7.82;;;;;;;;;;4942120;29;20058;-94
2022/03/26 05:59:37;;;;;;;16.70;7.88;;;;;;;;;;4975608;23;20111;-95
2022/03/26 06:02:06;;;;;;;19.30;7.55;;;;;;;;;;4962704;28;20491;-93
2022/03/26 06:04:43;;;;;;;14.77;7.32;;;;;;;;;;4963766;28;20042;-94
2022/03/26 06:07:09;;;;;;;12.38;6.22;;;;;;;;;;4970398;28;20031;-93
2022/03/26 06:12:41;;;;;;;19.58;4.63;;;;;;;;;;5002489;23;20045;-90
2022/03/26 06:15:34;;;;;;;9.82;4.43;;;;;;;;;;4962423;28;20037;-91
2022/03/26 06:18:10;;;;;;;13.33;4.80;;;;;;;;;;4971940;28;20074;-94
2022/03/26 06:20:45;;;;;;;12.15;4.50;;;;;;;;;;4986130;28;20385;-93
2022/03/26 06:23:17;;;;;;;13.00;5.40;;;;;;;;;;4974108;28;20503;-95
2022/03/26 06:25:43;;;;;;;12.50;5.22;;;;;;;;;;4965747;28;20089;-94
2022/03/26 06:28:22;;;;;;;15.15;5.00;;;;;;;;;;4977034;28;20027;-93
2022/03/26 06:30:49;;;;;;;27.05;5.85;;;;;;;;;;4962108;28;20034;-92
2022/03/26 06:36:22;;;;;;;14.80;5.93;;;;;;;;;;4975691;28;20419;-93
2022/03/26 06:38:48;;;;;;;18.02;6.45;;;;;;;;;;4980743;28;20152;-93
2022/03/26 06:41:17;;;;;;;11.27;6.20;;;;;;;;;;4977272;28;20034;-95
2022/03/26 06:43:44;;;;;;;21.45;5.90;;;;;;;;;;4980267;28;20447;-94
2022/03/26 06:46:37;;;;;;;11.63;6.28;;;;;;;;;;4981245;28;20030;-92
2022/03/26 06:49:07;;;;;;;13.80;6.28;;;;;;;;;;5009724;28;20026;-92
2022/03/26 06:51:39;;;;;;;15.00;6.55;;;;;;;;;;4988162;28;20041;-92
2022/03/26 07:00:00;;;;;;;14.38;7.50;;;;;;;;;;4958374;29;20397;-93
2022/03/26 07:02:29;;;;;;;11.63;6.55;;;;;;;;;;4957144;29;20038;-92
2022/03/26 07:05:07;;;;;;;13.55;6.63;;;;;;;;;;4955632;29;20046;-89
2022/03/26 07:07:40;;;;;;;12.32;7.00;;;;;;;;;;4955434;29;20034;-93
2022/03/26 07:10:15;;;;;;;14.07;6.45;;;;;;;;;;4955411;29;20183;-90
2022/03/26 07:12:41;;;;;;;16.58;7.75;;;;;;;;;;4955667;29;20034;-92
2022/03/26 07:18:13;;;;;;;16.58;7.63;;;;;;;;;;4956806;29;20046;-94
2022/03/26 07:20:44;;;;;;;16.38;6.97;;;;;;;;;;4956057;29;20472;-91
2022/03/26 07:23:14;;;;;;;15.27;7.88;;;;;;;;;;4955879;29;20030;-94
2022/03/26 07:25:40;;;;;;;17.55;8.10;;;;;;;;;;4969149;28;20039;-93
2022/03/26 07:28:07;;;;;;;15.07;7.93;;;;;;;;;;4977972;28;20023;-93
2022/03/26 07:30:39;;;;;;;15.43;8.60;;;;;;;;;;4976863;28;20027;-94
2022/03/26 07:33:12;;;;;;;18.98;8.75;;;;;;;;;;4977079;28;20066;-94
2022/03/26 07:35:38;;;;;;;16.50;9.07;;;;;;;;;;4994330;28;20031;-92
2022/03/26 07:41:04;;;;;;;24.38;9.35;;;;;;;;;;5034320;23;20116;-94
2022/03/26 07:43:33;;;;;;;21.90;10.20;;;;;;;;;;4983276;28;20063;-93
2022/03/26 07:45:59;;;;;;;21.35;9.25;;;;;;;;;;4984909;28;20025;-93
2022/03/26 07:48:47;;;;;;;18.30;8.57;;;;;;;;;;4985151;28;20068;-92
2022/03/26 07:51:19;;;;;;;17.75;7.82;;;;;;;;;;4999508;28;20030;-93
2022/03/26 07:53:49;;;;;;;15.48;7.40;;;;;;;;;;4982851;28;20030;-92
2022/03/26 07:56:26;;;;;;;19.75;8.75;;;;;;;;;;4983323;28;20038;-92
2022/03/26 07:58:57;;;;;;;21.25;8.02;;;;;;;;;;5002893;28;20037;-94
2022/03/26 08:01:23;;;;;;;18.02;8.18;;;;;;;;;;4986369;28;20030;-93
2022/03/26 08:04:03;;;;;;;16.38;7.45;;;;;;;;;;4985519;28;20567;-95
2022/03/26 08:06:29;;;;;;;19.42;8.35;;;;;;;;;;4979531;28;20031;-88
2022/03/26 08:08:56;;;;;;;19.98;7.93;;;;;;;;;;4962944;28;20029;-85
2022/03/26 08:11:22;;;;;;;21.60;8.32;;;;;;;;;;4947119;28;20166;-89
2022/03/26 08:13:49;;;;;;;17.92;8.52;;;;;;;;;;4962551;28;20444;-85
2022/03/26 08:16:16;;;;;;;18.05;9.00;;;;;;;;;;4962562;28;20061;-86
2022/03/26 08:18:44;;;;;;;18.77;8.50;;;;;;;;;;4962181;28;20023;-85
2022/03/26 08:21:14;;;;;;;23.92;8.55;;;;;;;;;;4961175;28;20062;-86
2022/03/26 08:23:44;;;;;;;18.05;8.02;;;;;;;;;;4962430;28;20042;-89
2022/03/26 08:26:29;;;;;;;25.40;9.70;;;;;;;;;;4961045;28;20034;-89
2022/03/26 08:29:00;;;;;;;18.85;8.30;;;;;;;;;;4961623;28;20041;-91
2022/03/26 08:31:52;;;;;;;18.08;8.02;;;;;;;;;;4944369;29;20075;-92
2022/03/26 08:34:20;;;;;;;19.40;8.48;;;;;;;;;;4868844;29;20121;-93
2022/03/26 08:36:47;;;;;;;22.55;9.13;;;;;;;;;;4940292;29;20072;-91
2022/03/26 08:39:22;;;;;;;24.23;9.90;;;;;;;;;;4924932;29;20071;-92
2022/03/26 08:42:26;;;;;;;22.63;8.43;;;;;;;;;;4890706;29;20069;-96
2022/03/26 08:44:57;;;;;;;18.48;8.00;;;;;;;;;;4854632;29;20017;-91
2022/03/26 08:47:23;;;;;;;18.13;9.20;;;;;;;;;;4920430;23;20040;-87
2022/03/26 08:49:50;;;;;;;18.83;8.57;;;;;;;;;;4966376;28;20058;-88
2022/03/26 08:52:17;;;;;;;20.27;8.73;;;;;;;;;;4966561;28;20062;-86
2022/03/26 08:54:49;;;;;;;21.15;8.82;;;;;;;;;;4971596;28;20037;-95
2022/03/26 08:57:15;;;;;;;20.63;9.10;;;;;;;;;;4969230;28;20129;-86
2022/03/26 08:59:41;;;;;;;21.55;9.10;;;;;;;;;;4983260;28;20023;-86
2022/03/26 09:02:11;;;;;;;17.65;8.48;;;;;;;;;;4964234;28;20030;-87
2022/03/26 09:04:39;;;;;;;16.35;8.75;;;;;;;;;;4967152;28;20133;-88
2022/03/26 09:07:27;;;;;;;16.92;8.30;;;;;;;;;;4969344;28;20031;-90
2022/03/26 09:09:53;;;;;;;15.15;8.27;;;;;;;;;;4966836;28;20123;-88
2022/03/26 09:12:19;;;;;;;16.33;8.35;;;;;;;;;;4971087;28;20035;-89
2022/03/26 09:14:45;;;;;;;19.70;9.43;;;;;;;;;;4971507;28;20119;-91
2022/03/26 09:17:11;;;;;;;15.93;9.35;;;;;;;;;;4979919;28;20043;-90
2022/03/26 09:19:38;;;;;;;21.08;9.02;;;;;;;;;;4967944;28;20003;-95
2022/03/26 09:22:10;;;;;;;20.33;8.57;;;;;;;;;;4964198;28;20038;-93
2022/03/26 09:24:36;;;;;;;17.02;7.60;;;;;;;;;;4961334;28;20081;-94
2022/03/26 09:27:02;;;;;;;15.63;8.52;;;;;;;;;;4962458;28;20035;-94
2022/03/26 09:29:37;;;;;;;16.67;8.52;;;;;;;;;;4962340;28;20030;-96
2022/03/26 09:32:19;;;;;;;15.75;7.97;;;;;;;;;;4966260;28;20038;-95
2022/03/26 09:35:26;;;;;;;17.38;7.88;;;;;;;;;;4982834;28;20027;-96
2022/03/26 09:37:55;;;;;;;14.73;7.85;;;;;;;;;;4964821;28;20039;-92
2022/03/26 09:40:23;;;;;;;19.08;9.35;;;;;;;;;;4962445;28;20515;-85
2022/03/26 09:42:49;;;;;;;17.85;8.90;;;;;;;;;;4962346;28;20077;-86
2022/03/26 09:45:23;;;;;;;21.00;8.57;;;;;;;;;;4967329;28;20027;-93
2022/03/26 09:47:49;;;;;;;19.25;9.25;;;;;;;;;;4958838;28;20138;-94
2022/03/26 09:50:15;;;;;;;15.75;8.68;;;;;;;;;;5069259;23;20050;-86
2022/03/26 09:52:45;;;;;;;20.73;8.93;;;;;;;;;;4959066;29;20098;-96
2022/03/26 09:58:48;;;;;;;18.33;8.88;;;;;;;;;;4925598;28;20040;-96
2022/03/26 10:10:18;;;;;;;13.90;7.03;;;;;;;;;;5072037;23;20069;31
2022/03/26 10:12:53;;;;;;;18.27;8.63;;;;;;;;;;4909462;29;20060;-96
2022/03/26 10:15:51;;;;;;;13.63;7.72;;;;;;;;;;5311459;23;20055;-96
2022/03/26 10:18:23;;;;;;;16.50;9.00;;;;;;;;;;4949297;29;20041;-96
2022/03/26 10:20:49;;;;;;;;;;;;;;;;;;4941389;29;20025;-96
2022/03/26 10:23:28;;;;;;;19.65;8.38;;;;;;;;;;4939534;29;19954;-92
2022/03/26 10:35:08;;;;;;;19.90;8.20;;;;;;;;;;4959567;29;20046;-87
2022/03/26 10:37:56;;;;;;;15.18;8.13;;;;;;;;;;4946466;29;20055;-90
2022/03/26 10:41:14;;;;;;;22.52;9.40;;;;;;;;;;4961613;28;20047;-95
2022/03/26 10:46:12;;;;;;;17.58;7.75;;;;;;;;;;5017758;23;20042;-93
2022/03/26 10:48:48;;;;;;;16.42;8.27;;;;;;;;;;4973491;28;20030;-94
2022/03/26 10:51:20;;;;;;;17.33;8.48;;;;;;;;;;4969296;28;20122;-88
2022/03/26 11:02:49;;;;;;;17.10;8.25;;;;;;;;;;5254132;23;19942;-89
2022/03/26 11:05:19;;;;;;;16.45;7.40;;;;;;;;;;4970505;28;20034;-90
2022/03/26 11:08:03;;;;;;;17.70;8.48;;;;;;;;;;4973260;28;20039;-95
2022/03/26 11:10:42;;;;;;;19.15;8.18;;;;;;;;;;5138073;23;20061;-95
2022/03/26 11:13:15;;;;;;;15.88;7.85;;;;;;;;;;4964838;29;20048;-92
2022/03/26 11:15:47;;;;;;;16.52;8.13;;;;;;;;;;4947181;29;20058;-92
2022/03/26 11:18:37;;;;;;;18.20;8.07;;;;;;;;;;4946331;29;20038;-94
2022/03/26 11:21:31;;;;;;;17.17;7.90;;;;;;;;;;4962594;28;20032;-93
2022/03/26 11:24:30;;;;;;;19.73;7.90;;;;;;;;;;4956250;29;20046;-94
2022/03/26 11:37:54;;;;;;;18.75;7.78;;;;;;;;;;4976735;28;20145;-93
2022/03/26 11:40:48;;;;;;;21.63;9.02;;;;;;;;;;4977224;28;20027;-92
2022/03/26 11:43:17;;;;;;;;;;;;;;;;;;4975224;28;20035;-90
2022/03/26 11:51:32;;;;;;;17.70;7.85;;;;;;;;;;4977813;28;20447;-93
2022/03/26 11:54:25;;;;;;;15.75;7.32;;;;;;;;;;4978588;28;20487;-90
2022/03/26 11:57:15;;;;;;;19.13;9.80;;;;;;;;;;4971575;28;20043;-93
2022/03/26 11:59:45;;;;;;;19.45;8.75;;;;;;;;;;4979217;28;20066;-93
2022/03/26 12:02:35;;;;;;;19.88;7.60;;;;;;;;;;4977033;28;20027;-87
2022/03/26 12:08:11;;;;;;;19.08;8.25;;;;;;;;;;4995051;28;20037;-94
2022/03/26 12:10:59;;;;;;;22.25;9.02;;;;;;;;;;4999739;28;20045;-95
2022/03/26 12:13:38;;;;;;;18.83;7.13;;;;;;;;;;4998835;28;20108;-84
2022/03/26 12:16:05;;;;;;;16.23;6.65;;;;;;;;;;4999338;28;20046;-87
2022/03/26 12:21:55;;;;;;;28.45;8.13;;;;;;;;;;4977732;28;20033;-91
2022/03/26 12:24:35;;;;;;;23.77;8.27;;;;;;;;;;4984462;28;20099;-90
2022/03/26 12:27:10;;;;;;;20.92;7.82;;;;;;;;;;4984231;28;20030;-87
2022/03/26 12:29:42;;;;;;;26.20;7.30;;;;;;;;;;5115736;23;20053;-88
2022/03/26 12:38:28;;;;;;;16.95;7.18;;;;;;;;;;4970184;28;20058;-85
2022/03/26 12:40:58;;;;;;;18.10;6.95;;;;;;;;;;4969110;28;20031;-92
2022/03/26 12:43:31;;;;;;;16.00;6.93;;;;;;;;;;5105694;23;20030;-89
2022/03/26 12:48:53;;;;;;;17.20;6.95;;;;;;;;;;5010636;23;20127;-86
2022/03/26 12:51:19;;;;;;;17.52;7.43;;;;;;;;;;4964615;28;20093;-87
2022/03/26 12:53:52;;;;;;;21.20;7.82;;;;;;;;;;4966560;28;20019;-85
2022/03/26 12:56:25;;;;;;;24.45;6.32;;;;;;;;;;4971134;28;20520;-86
2022/03/26 12:58:57;;;;;;;20.55;6.97;;;;;;;;;;4967853;28;20035;-85
2022/03/26 13:04:23;;;;;;;22.90;6.50;;;;;;;;;;4961089;29;20034;-90
2022/03/26 13:07:09;;;;;;;16.88;6.20;;;;;;;;;;4942276;29;20038;-91
2022/03/26 13:09:39;;;;;;;18.60;6.97;;;;;;;;;;4942095;29;20106;-89
2022/03/26 13:12:05;;;;;;;20.50;6.68;;;;;;;;;;4942766;29;20499;-90
2022/03/26 13:14:34;;;;;;;18.50;7.40;;;;;;;;;;4942387;29;20374;-92
2022/03/26 13:17:01;;;;;;;40.45;15.73;;;;;;;;;;4941711;29;20039;-92
2022/03/26 13:19:34;;;;;;;30.15;8.30;;;;;;;;;;4942812;29;20027;-94
2022/03/26 13:22:02;;;;;;;22.67;7.87;;;;;;;;;;4943082;29;20035;-91
2022/03/26 13:25:05;;;;;;;16.13;6.55;;;;;;;;;;4942525;29;20279;-92
2022/03/26 13:27:31;;;;;;;16.58;6.38;;;;;;;;;;4887661;29;20084;-89
2022/03/26 13:30:10;;;;;;;18.08;6.85;;;;;;;;;;4940416;29;20031;-90
2022/03/26 13:32:36;;;;;;;15.77;6.00;;;;;;;;;;4944678;29;20035;-93
2022/03/26 13:35:03;;;;;;;18.52;6.60;;;;;;;;;;4950303;29;20015;-88
2022/03/26 13:37:29;;;;;;;18.73;6.53;;;;;;;;;;4958926;29;20046;-93
2022/03/26 13:43:00;;;;;;;19.02;6.20;;;;;;;;;;4967090;29;20125;-92
2022/03/26 13:45:29;;;;;;;23.08;5.70;;;;;;;;;;4952138;29;20038;-88
2022/03/26 13:47:56;;;;;;;19.02;5.90;;;;;;;;;;4951268;29;20047;-87
2022/03/26 13:50:23;;;;;;;13.77;4.70;;;;;;;;;;4948481;28;20039;-80
2022/03/26 13:52:51;;;;;;;19.00;6.25;;;;;;;;;;4965456;28;20360;-89
2022/03/26 13:55:28;;;;;;;12.40;5.82;;;;;;;;;;4968581;28;20069;-89
2022/03/26 13:57:56;;;;;;;17.48;5.93;;;;;;;;;;4973709;28;20031;-90
2022/03/26 14:00:22;;;;;;;16.80;6.05;;;;;;;;;;4973159;28;20038;-94
2022/03/26 14:03:00;;;;;;;15.15;6.25;;;;;;;;;;4988343;28;20034;-95
2022/03/26 14:05:28;;;;;;;21.80;7.55;;;;;;;;;;4993598;28;20012;-88
2022/03/26 14:08:24;;;;;;;13.75;6.35;;;;;;;;;;4994336;28;20014;-89
2022/03/26 14:10:50;;;;;;;19.73;7.03;;;;;;;;;;4914994;29;20040;-86
2022/03/26 14:13:18;;;;;;;12.27;5.90;;;;;;;;;;4907143;29;20031;-81
2022/03/26 14:15:54;;;;;;;19.10;6.82;;;;;;;;;;4979595;28;20043;-92
2022/03/26 14:18:29;;;;;;;16.88;6.78;;;;;;;;;;4997258;28;20109;-85
2022/03/26 14:20:56;;;;;;;16.30;6.15;;;;;;;;;;4995129;28;20073;-92
2022/03/26 14:23:22;;;;;;;17.92;7.38;;;;;;;;;;4999297;28;20018;-94
2022/03/26 14:25:51;;;;;;;18.65;6.32;;;;;;;;;;4982608;28;20042;-87
2022/03/26 14:28:18;;;;;;;19.55;6.63;;;;;;;;;;4993529;28;20090;-90
2022/03/26 14:30:45;;;;;;;17.80;6.18;;;;;;;;;;4991218;28;20081;-91
2022/03/26 14:33:11;;;;;;;15.50;6.63;;;;;;;;;;4993156;28;20121;-92
2022/03/26 14:35:55;;;;;;;21.98;6.97;;;;;;;;;;4987649;28;20036;-94
2022/03/26 14:38:27;;;;;;;17.48;6.50;;;;;;;;;;4986994;28;20030;-91
2022/03/26 14:40:57;;;;;;;18.48;8.68;;;;;;;;;;4982953;28;20074;-92
2022/03/26 14:43:23;;;;;;;17.27;7.38;;;;;;;;;;4981298;28;20125;-89
2022/03/26 14:45:53;;;;;;;19.52;7.68;;;;;;;;;;4987347;28;20073;-92
2022/03/26 15:02:34;;;;;;;18.80;8.15;;;;;;;;;;4986510;28;20106;-92
2022/03/26 15:05:00;;;;;;;17.25;7.60;;;;;;;;;;4968516;28;20439;-95
2022/03/26 15:07:32;;;;;;;20.23;7.07;;;;;;;;;;4970367;28;20057;-92
2022/03/26 15:10:17;;;;;;;14.95;6.63;;;;;;;;;;4968524;28;20127;-91
2022/03/26 15:15:47;;;;;;;23.98;9.80;;;;;;;;;;4996348;23;20141;-92
2022/03/26 15:18:13;;;;;;;18.33;6.75;;;;;;;;;;4962984;28;20046;-91
2022/03/26 15:20:42;;;;;;;18.17;7.35;;;;;;;;;;4968457;28;20022;-93
2022/03/26 15:23:14;;;;;;;27.50;8.63;;;;;;;;;;4963374;28;20035;-89
2022/03/26 15:25:40;;;;;;;22.27;8.20;;;;;;;;;;4959812;28;20031;-89
2022/03/26 15:28:10;;;;;;;25.85;8.68;;;;;;;;;;4962366;28;20069;-95
2022/03/26 15:30:36;;;;;;;23.65;8.50;;;;;;;;;;4962098;28;20027;-91
2022/03/26 15:33:03;;;;;;;21.42;8.00;;;;;;;;;;4961321;28;20027;-88
2022/03/26 15:35:29;;;;;;;19.60;7.05;;;;;;;;;;4960899;28;20031;-89
2022/03/26 15:38:01;;;;;;;21.70;8.00;;;;;;;;;;4945534;28;20130;-89
2022/03/26 15:40:27;;;;;;;17.63;7.47;;;;;;;;;;4960781;28;20113;-91
2022/03/26 15:42:53;;;;;;;19.02;7.15;;;;;;;;;;4963032;28;20038;-92
2022/03/26 15:45:23;;;;;;;20.63;8.02;;;;;;;;;;4962162;28;20027;-93
2022/03/26 15:47:52;;;;;;;19.63;8.10;;;;;;;;;;4945925;28;20102;-92
2022/03/26 15:50:24;;;;;;;17.92;7.50;;;;;;;;;;4960796;28;20027;-90
2022/03/26 15:52:54;;;;;;;18.25;7.65;;;;;;;;;;4965095;28;20061;-92
2022/03/26 16:07:33;;;;;;;16.38;8.02;;;;;;;;;;4985105;28;20037;-92
2022/03/26 16:10:12;;;;;;;;;;;;;;;;;;;;;
2022/03/26 16:12:46;;;;;;;18.75;7.53;;;;;;;;;;4989406;28;20109;-92
2022/03/26 16:15:22;;;;;;;15.80;8.18;;;;;;;;;;4943849;29;20074;-91
2022/03/26 16:17:57;;;;;;;19.55;7.32;;;;;;;;;;4942013;29;20046;-91
2022/03/26 16:20:27;;;;;;;21.08;8.20;;;;;;;;;;4941045;29;20095;-94
2022/03/26 16:23:21;;;;;;;14.98;6.60;;;;;;;;;;4924837;29;20055;-94
2022/03/26 17:56:01;;;;;;;19.67;7.55;;;;;;;;;;5014165;23;19930;-94
2022/03/26 17:58:41;;;;;;;24.08;7.32;;;;;;;;;;4906182;29;20036;-95
2022/03/26 18:01:10;;;;;;;15.93;7.07;;;;;;;;;;4886267;29;20104;-96
2022/03/26 18:03:52;;;;;;;21.83;7.88;;;;;;;;;;4910086;29;20020;-92
2022/03/26 18:06:25;;;;;;;34.03;7.60;;;;;;;;;;4917017;29;20056;-94
2022/03/26 18:08:51;;;;;;;17.85;6.40;;;;;;;;;;4903838;29;20045;-94
2022/03/26 18:11:58;;;;;;;23.23;7.35;;;;;;;;;;4896596;29;20057;-90
2022/03/26 18:26:14;;;;;;;;;;;;;;;;;;;;;
2022/03/26 18:31:51;;;;;;;19.42;7.57;;;;;;;;;;5560777;23;20037;-96
2022/03/26 18:34:32;;;;;;;18.63;8.63;;;;;;;;;;4905162;29;20075;-95
2022/03/26 18:36:58;;;;;;;17.90;7.10;;;;;;;;;;4902667;29;20041;-87
2022/03/26 18:39:34;;;;;;;28.13;8.45;;;;;;;;;;4898294;29;20110;-94
2022/03/26 18:42:11;;;;;;;22.77;8.77;;;;;;;;;;4873326;29;20045;-95
2022/03/26 18:51:33;;;;;;;29.65;11.40;;;;;;;;;;4876888;29;20121;-91
2022/03/26 18:54:46;;;;;;;35.58;11.13;;;;;;;;;;5111996;23;20119;-95
2022/03/26 19:00:32;;;;;;;19.80;9.60;;;;;;;;;;4876777;23;20389;-92
2022/03/26 19:03:02;;;;;;;22.48;9.02;;;;;;;;;;4918699;29;20036;-91
2022/03/26 19:05:32;;;;;;;24.20;9.63;;;;;;;;;;4903888;29;20046;-92
2022/03/26 19:07:58;;;;;;;21.45;10.32;;;;;;;;;;4906025;29;20024;-91
2022/03/26 19:10:27;;;;;;;18.50;8.95;;;;;;;;;;4910366;29;20062;-90
2022/03/26 19:13:06;;;;;;;19.65;10.27;;;;;;;;;;4905807;29;20477;-93
2022/03/26 19:18:09;;;;;;;17.40;9.93;;;;;;;;;;4977225;23;20541;-90
2022/03/26 19:20:38;;;;;;;23.20;9.77;;;;;;;;;;4885455;29;20466;-92
2022/03/26 19:23:16;;;;;;;19.65;9.38;;;;;;;;;;4883624;29;20033;-89
2022/03/26 19:25:48;;;;;;;19.63;9.57;;;;;;;;;;4883446;29;20123;-89
2022/03/26 19:29:36;;;;;;;20.55;10.10;;;;;;;;;;4882983;29;20115;-90